Harris, Arkansas
Current Conditions -  °F | °C
As of 5:53 AM on Saturday 20 Dec 2014 (Local Time) from KFYV Reporting Station
Haze Haze  
Wind Chill: 39°   Ceiling: 600
Heat Index: 39°   Visibility: 5mi
Dew Point: 39°   Wind: 0mph
Humidity: 100%   Direction: NA
Pressure: 30.22"   Gusts: NA
Location:  35.9902°N, 94.083°W
Report Text: KFYV 201153Z 00000KT 5SM BR OVC006 04/04 A3022 RMK AO2 SLP237 70001 T00390039 10044 20039 53006 $
Loading
Personal Weather Stations






























Interactive Weather Map New forecast layout! Learn more

10-Day Weather Forecast

Advertisements
Track Severe Weather on mobile